sensor_id;sensor_type;location;lat;lon;timestamp;P1;durP1;ratioP1;P2;durP2;ratioP2
30647;SDS011;17683;53.360;9.736;2023-04-01T00:00:54;7.10;;;4.25;;
30647;SDS011;17683;53.360;9.736;2023-04-01T00:03:24;7.97;;;4.30;;
30647;SDS011;17683;53.360;9.736;2023-04-01T00:05:51;8.23;;;3.47;;
30647;SDS011;17683;53.360;9.736;2023-04-01T00:08:17;7.63;;;4.43;;
30647;SDS011;17683;53.360;9.736;2023-04-01T00:10:43;9.50;;;4.65;;
30647;SDS011;17683;53.360;9.736;2023-04-01T00:13:09;8.80;;;4.82;;
30647;SDS011;17683;53.360;9.736;2023-04-01T00:15:34;6.90;;;4.22;;
30647;SDS011;17683;53.360;9.736;2023-04-01T00:18:00;10.70;;;5.10;;
30647;SDS011;17683;53.360;9.736;2023-04-01T00:20:26;10.75;;;5.22;;
30647;SDS011;17683;53.360;9.736;2023-04-01T00:22:52;11.48;;;4.63;;
30647;SDS011;17683;53.360;9.736;2023-04-01T00:25:18;8.45;;;3.90;;
30647;SDS011;17683;53.360;9.736;2023-04-01T00:27:44;7.80;;;4.60;;
30647;SDS011;17683;53.360;9.736;2023-04-01T00:30:10;9.98;;;4.38;;
30647;SDS011;17683;53.360;9.736;2023-04-01T00:32:36;7.65;;;4.50;;
30647;SDS011;17683;53.360;9.736;2023-04-01T00:35:02;7.07;;;4.43;;
30647;SDS011;17683;53.360;9.736;2023-04-01T00:37:29;7.47;;;4.70;;
30647;SDS011;17683;53.360;9.736;2023-04-01T00:39:55;8.73;;;4.13;;
30647;SDS011;17683;53.360;9.736;2023-04-01T00:42:22;10.68;;;4.70;;
30647;SDS011;17683;53.360;9.736;2023-04-01T00:44:50;7.95;;;4.03;;
30647;SDS011;17683;53.360;9.736;2023-04-01T00:47:17;7.80;;;4.32;;
30647;SDS011;17683;53.360;9.736;2023-04-01T00:49:44;10.10;;;4.32;;
30647;SDS011;17683;53.360;9.736;2023-04-01T00:52:12;6.05;;;3.83;;
30647;SDS011;17683;53.360;9.736;2023-04-01T00:54:42;8.07;;;4.97;;
30647;SDS011;17683;53.360;9.736;2023-04-01T00:57:17;9.45;;;3.85;;
30647;SDS011;17683;53.360;9.736;2023-04-01T00:59:54;7.18;;;3.95;;
30647;SDS011;17683;53.360;9.736;2023-04-01T01:02:21;5.97;;;4.10;;
30647;SDS011;17683;53.360;9.736;2023-04-01T01:04:47;6.05;;;3.90;;
30647;SDS011;17683;53.360;9.736;2023-04-01T01:34:40;7.47;;;3.92;;
30647;SDS011;17683;53.360;9.736;2023-04-01T01:37:15;5.68;;;3.40;;
30647;SDS011;17683;53.360;9.736;2023-04-01T01:39:44;7.82;;;3.95;;
30647;SDS011;17683;53.360;9.736;2023-04-01T01:42:16;6.68;;;3.85;;
30647;SDS011;17683;53.360;9.736;2023-04-01T01:44:44;10.98;;;4.55;;
30647;SDS011;17683;53.360;9.736;2023-04-01T01:47:13;8.05;;;4.05;;
30647;SDS011;17683;53.360;9.736;2023-04-01T01:49:40;6.55;;;4.50;;
30647;SDS011;17683;53.360;9.736;2023-04-01T01:52:08;8.23;;;4.72;;
30647;SDS011;17683;53.360;9.736;2023-04-01T01:54:34;7.80;;;4.80;;
30647;SDS011;17683;53.360;9.736;2023-04-01T01:57:07;5.93;;;4.18;;
30647;SDS011;17683;53.360;9.736;2023-04-01T01:59:35;6.72;;;4.57;;
30647;SDS011;17683;53.360;9.736;2023-04-01T02:02:05;9.60;;;4.70;;
30647;SDS011;17683;53.360;9.736;2023-04-01T02:04:37;7.22;;;4.63;;
30647;SDS011;17683;53.360;9.736;2023-04-01T02:07:07;6.47;;;4.65;;
30647;SDS011;17683;53.360;9.736;2023-04-01T02:09:41;8.80;;;4.82;;
30647;SDS011;17683;53.360;9.736;2023-04-01T02:12:08;9.23;;;4.72;;
30647;SDS011;17683;53.360;9.736;2023-04-01T02:17:10;10.95;;;5.38;;
30647;SDS011;17683;53.360;9.736;2023-04-01T02:19:41;9.30;;;5.40;;
30647;SDS011;17683;53.360;9.736;2023-04-01T02:22:22;9.63;;;4.80;;
30647;SDS011;17683;53.360;9.736;2023-04-01T02:24:51;9.95;;;5.47;;
30647;SDS011;17683;53.360;9.736;2023-04-01T02:27:19;6.88;;;5.22;;
30647;SDS011;17683;53.360;9.736;2023-04-01T02:29:46;10.55;;;5.63;;
30647;SDS011;17683;53.360;9.736;2023-04-01T02:32:12;6.32;;;5.35;;
30647;SDS011;17683;53.360;9.736;2023-04-01T02:34:39;8.48;;;5.35;;
30647;SDS011;17683;53.360;9.736;2023-04-01T02:37:05;6.90;;;5.07;;
30647;SDS011;17683;53.360;9.736;2023-04-01T02:39:32;9.45;;;4.97;;
30647;SDS011;17683;53.360;9.736;2023-04-01T02:41:57;6.25;;;5.13;;
30647;SDS011;17683;53.360;9.736;2023-04-01T02:44:23;11.55;;;5.35;;
30647;SDS011;17683;53.360;9.736;2023-04-01T02:46:49;8.35;;;4.85;;
30647;SDS011;17683;53.360;9.736;2023-04-01T02:49:14;8.18;;;5.43;;
30647;SDS011;17683;53.360;9.736;2023-04-01T02:51:40;6.38;;;4.70;;
30647;SDS011;17683;53.360;9.736;2023-04-01T02:54:06;9.18;;;5.00;;
30647;SDS011;17683;53.360;9.736;2023-04-01T02:56:31;8.10;;;5.03;;
30647;SDS011;17683;53.360;9.736;2023-04-01T02:58:57;7.97;;;5.00;;
30647;SDS011;17683;53.360;9.736;2023-04-01T03:01:23;5.93;;;4.40;;
30647;SDS011;17683;53.360;9.736;2023-04-01T03:03:49;8.35;;;5.07;;
30647;SDS011;17683;53.360;9.736;2023-04-01T03:06:15;7.78;;;5.43;;
30647;SDS011;17683;53.360;9.736;2023-04-01T03:08:42;6.65;;;5.20;;
30647;SDS011;17683;53.360;9.736;2023-04-01T03:11:08;8.95;;;5.25;;
30647;SDS011;17683;53.360;9.736;2023-04-01T03:13:35;7.55;;;5.60;;
30647;SDS011;17683;53.360;9.736;2023-04-01T03:16:01;7.72;;;5.22;;
30647;SDS011;17683;53.360;9.736;2023-04-01T03:18:26;7.55;;;5.85;;
30647;SDS011;17683;53.360;9.736;2023-04-01T03:20:52;10.05;;;6.47;;
30647;SDS011;17683;53.360;9.736;2023-04-01T03:23:18;8.77;;;5.65;;
30647;SDS011;17683;53.360;9.736;2023-04-01T03:25:46;9.43;;;5.25;;
30647;SDS011;17683;53.360;9.736;2023-04-01T03:28:12;9.73;;;5.13;;
30647;SDS011;17683;53.360;9.736;2023-04-01T03:30:38;7.55;;;4.82;;
30647;SDS011;17683;53.360;9.736;2023-04-01T03:33:05;8.95;;;4.60;;
30647;SDS011;17683;53.360;9.736;2023-04-01T03:35:31;8.50;;;5.50;;
30647;SDS011;17683;53.360;9.736;2023-04-01T03:37:57;5.68;;;4.93;;
30647;SDS011;17683;53.360;9.736;2023-04-01T03:40:23;7.68;;;5.70;;
30647;SDS011;17683;53.360;9.736;2023-04-01T03:42:51;9.00;;;6.18;;
30647;SDS011;17683;53.360;9.736;2023-04-01T03:45:17;8.38;;;5.22;;
30647;SDS011;17683;53.360;9.736;2023-04-01T03:47:43;10.85;;;5.72;;
30647;SDS011;17683;53.360;9.736;2023-04-01T03:50:09;9.00;;;6.10;;
30647;SDS011;17683;53.360;9.736;2023-04-01T03:52:35;8.35;;;5.75;;
30647;SDS011;17683;53.360;9.736;2023-04-01T03:55:01;11.73;;;5.80;;
30647;SDS011;17683;53.360;9.736;2023-04-01T03:57:27;7.85;;;5.57;;
30647;SDS011;17683;53.360;9.736;2023-04-01T03:59:53;6.50;;;5.70;;
30647;SDS011;17683;53.360;9.736;2023-04-01T04:02:18;9.35;;;5.65;;
30647;SDS011;17683;53.360;9.736;2023-04-01T04:04:44;9.48;;;6.15;;
30647;SDS011;17683;53.360;9.736;2023-04-01T04:07:11;8.45;;;6.00;;
30647;SDS011;17683;53.360;9.736;2023-04-01T04:09:37;7.43;;;5.45;;
30647;SDS011;17683;53.360;9.736;2023-04-01T04:12:03;8.55;;;5.60;;
30647;SDS011;17683;53.360;9.736;2023-04-01T04:14:30;9.60;;;5.70;;
30647;SDS011;17683;53.360;9.736;2023-04-01T04:16:56;10.65;;;5.97;;
30647;SDS011;17683;53.360;9.736;2023-04-01T04:19:22;7.35;;;5.22;;
30647;SDS011;17683;53.360;9.736;2023-04-01T04:21:48;5.68;;;5.03;;
30647;SDS011;17683;53.360;9.736;2023-04-01T04:24:13;8.82;;;5.53;;
30647;SDS011;17683;53.360;9.736;2023-04-01T04:26:39;7.93;;;5.53;;
30647;SDS011;17683;53.360;9.736;2023-04-01T04:29:05;8.52;;;5.15;;
30647;SDS011;17683;53.360;9.736;2023-04-01T04:31:31;8.65;;;5.20;;
30647;SDS011;17683;53.360;9.736;2023-04-01T04:33:58;9.32;;;5.13;;
30647;SDS011;17683;53.360;9.736;2023-04-01T04:36:24;6.07;;;4.72;;
30647;SDS011;17683;53.360;9.736;2023-04-01T04:38:50;5.35;;;4.40;;
30647;SDS011;17683;53.360;9.736;2023-04-01T04:41:16;6.97;;;5.13;;
30647;SDS011;17683;53.360;9.736;2023-04-01T04:43:48;6.07;;;4.70;;
30647;SDS011;17683;53.360;9.736;2023-04-01T04:46:15;5.97;;;4.90;;
30647;SDS011;17683;53.360;9.736;2023-04-01T04:48:41;6.05;;;4.60;;
30647;SDS011;17683;53.360;9.736;2023-04-01T04:51:11;7.05;;;4.50;;
30647;SDS011;17683;53.360;9.736;2023-04-01T04:53:38;4.88;;;4.38;;
30647;SDS011;17683;53.360;9.736;2023-04-01T04:56:04;5.18;;;4.47;;
30647;SDS011;17683;53.360;9.736;2023-04-01T04:58:30;7.65;;;5.38;;
30647;SDS011;17683;53.360;9.736;2023-04-01T05:00:55;6.65;;;4.50;;
30647;SDS011;17683;53.360;9.736;2023-04-01T05:03:21;6.15;;;5.13;;
30647;SDS011;17683;53.360;9.736;2023-04-01T05:05:50;7.63;;;5.13;;
30647;SDS011;17683;53.360;9.736;2023-04-01T05:08:17;8.48;;;5.28;;
30647;SDS011;17683;53.360;9.736;2023-04-01T05:10:43;10.85;;;5.07;;
30647;SDS011;17683;53.360;9.736;2023-04-01T05:13:09;7.85;;;5.38;;
30647;SDS011;17683;53.360;9.736;2023-04-01T05:15:35;6.30;;;4.70;;
30647;SDS011;17683;53.360;9.736;2023-04-01T05:18:02;7.85;;;4.93;;
30647;SDS011;17683;53.360;9.736;2023-04-01T05:20:28;6.28;;;5.32;;
30647;SDS011;17683;53.360;9.736;2023-04-01T05:22:57;8.18;;;4.70;;
30647;SDS011;17683;53.360;9.736;2023-04-01T05:25:24;7.28;;;4.53;;
30647;SDS011;17683;53.360;9.736;2023-04-01T05:27:50;5.63;;;4.68;;
30647;SDS011;17683;53.360;9.736;2023-04-01T05:30:16;7.03;;;4.50;;
30647;SDS011;17683;53.360;9.736;2023-04-01T05:32:42;7.05;;;5.68;;
30647;SDS011;17683;53.360;9.736;2023-04-01T05:35:08;7.32;;;5.15;;
30647;SDS011;17683;53.360;9.736;2023-04-01T05:37:35;7.78;;;5.15;;
30647;SDS011;17683;53.360;9.736;2023-04-01T05:40:00;6.43;;;5.13;;
30647;SDS011;17683;53.360;9.736;2023-04-01T05:42:27;10.77;;;5.82;;
30647;SDS011;17683;53.360;9.736;2023-04-01T05:44:52;7.00;;;5.43;;
30647;SDS011;17683;53.360;9.736;2023-04-01T05:47:18;9.15;;;5.32;;
30647;SDS011;17683;53.360;9.736;2023-04-01T05:49:44;10.80;;;6.05;;
30647;SDS011;17683;53.360;9.736;2023-04-01T05:52:09;7.10;;;5.53;;
30647;SDS011;17683;53.360;9.736;2023-04-01T05:54:35;7.68;;;5.38;;
30647;SDS011;17683;53.360;9.736;2023-04-01T05:57:01;7.45;;;5.32;;
30647;SDS011;17683;53.360;9.736;2023-04-01T05:59:27;8.05;;;5.22;;
30647;SDS011;17683;53.360;9.736;2023-04-01T06:01:53;8.77;;;5.60;;
30647;SDS011;17683;53.360;9.736;2023-04-01T06:04:18;9.13;;;5.75;;
30647;SDS011;17683;53.360;9.736;2023-04-01T06:06:44;5.35;;;4.15;;
30647;SDS011;17683;53.360;9.736;2023-04-01T06:09:15;8.18;;;5.30;;
30647;SDS011;17683;53.360;9.736;2023-04-01T06:17:26;9.57;;;5.70;;
30647;SDS011;17683;53.360;9.736;2023-04-01T06:20:12;7.18;;;4.90;;
30647;SDS011;17683;53.360;9.736;2023-04-01T06:34:20;6.57;;;4.57;;
30647;SDS011;17683;53.360;9.736;2023-04-01T06:56:31;6.00;;;3.53;;
30647;SDS011;17683;53.360;9.736;2023-04-01T06:58:59;6.32;;;4.43;;
30647;SDS011;17683;53.360;9.736;2023-04-01T07:01:37;8.35;;;4.32;;
30647;SDS011;17683;53.360;9.736;2023-04-01T07:06:54;6.38;;;4.60;;
30647;SDS011;17683;53.360;9.736;2023-04-01T07:09:28;7.93;;;4.25;;
30647;SDS011;17683;53.360;9.736;2023-04-01T07:12:00;5.97;;;4.13;;
30647;SDS011;17683;53.360;9.736;2023-04-01T07:14:37;6.15;;;4.15;;
30647;SDS011;17683;53.360;9.736;2023-04-01T07:19:59;8.63;;;4.93;;
30647;SDS011;17683;53.360;9.736;2023-04-01T07:22:36;5.45;;;3.70;;
30647;SDS011;17683;53.360;9.736;2023-04-01T07:25:15;3.45;;;2.10;;
30647;SDS011;17683;53.360;9.736;2023-04-01T07:28:00;2.63;;;1.02;;
30647;SDS011;17683;53.360;9.736;2023-04-01T07:30:32;2.30;;;1.10;;
30647;SDS011;17683;53.360;9.736;2023-04-01T07:33:13;2.83;;;0.75;;
30647;SDS011;17683;53.360;9.736;2023-04-01T07:44:28;0.40;;;0.40;;
30647;SDS011;17683;53.360;9.736;2023-04-01T07:47:24;0.73;;;0.70;;
30647;SDS011;17683;53.360;9.736;2023-04-01T08:03:37;0.60;;;0.60;;
30647;SDS011;17683;53.360;9.736;2023-04-01T08:17:03;0.65;;;0.65;;
30647;SDS011;17683;53.360;9.736;2023-04-01T08:19:46;1.13;;;0.57;;
30647;SDS011;17683;53.360;9.736;2023-04-01T08:22:32;1.05;;;0.73;;
30647;SDS011;17683;53.360;9.736;2023-04-01T08:25:05;0.57;;;0.57;;
30647;SDS011;17683;53.360;9.736;2023-04-01T08:27:37;0.80;;;0.60;;
30647;SDS011;17683;53.360;9.736;2023-04-01T08:30:23;0.95;;;0.70;;
30647;SDS011;17683;53.360;9.736;2023-04-01T08:35:53;2.95;;;0.50;;
30647;SDS011;17683;53.360;9.736;2023-04-01T08:38:23;0.77;;;0.60;;
30647;SDS011;17683;53.360;9.736;2023-04-01T08:43:51;0.43;;;0.30;;
30647;SDS011;17683;53.360;9.736;2023-04-01T08:49:14;1.83;;;0.50;;
30647;SDS011;17683;53.360;9.736;2023-04-01T08:51:48;3.10;;;0.52;;
30647;SDS011;17683;53.360;9.736;2023-04-01T08:59:52;0.73;;;0.50;;
30647;SDS011;17683;53.360;9.736;2023-04-01T09:16:28;0.60;;;0.57;;
30647;SDS011;17683;53.360;9.736;2023-04-01T09:19:10;1.05;;;0.40;;
30647;SDS011;17683;53.360;9.736;2023-04-01T09:37:50;0.38;;;0.38;;
30647;SDS011;17683;53.360;9.736;2023-04-01T10:30:50;1.02;;;0.60;;
30647;SDS011;17683;53.360;9.736;2023-04-01T11:18:11;0.85;;;0.60;;
30647;SDS011;17683;53.360;9.736;2023-04-01T11:23:48;0.70;;;0.47;;
30647;SDS011;17683;53.360;9.736;2023-04-01T11:26:26;0.45;;;0.45;;
30647;SDS011;17683;53.360;9.736;2023-04-01T11:31:47;0.50;;;0.43;;
30647;SDS011;17683;53.360;9.736;2023-04-01T11:37:40;0.43;;;0.43;;
30647;SDS011;17683;53.360;9.736;2023-04-01T11:43:00;1.08;;;0.70;;
30647;SDS011;17683;53.360;9.736;2023-04-01T11:45:35;0.82;;;0.52;;
30647;SDS011;17683;53.360;9.736;2023-04-01T11:48:17;0.40;;;0.40;;
30647;SDS011;17683;53.360;9.736;2023-04-01T11:59:52;1.33;;;0.80;;
30647;SDS011;17683;53.360;9.736;2023-04-01T12:02:25;0.52;;;0.50;;
30647;SDS011;17683;53.360;9.736;2023-04-01T12:18:04;0.68;;;0.68;;
30647;SDS011;17683;53.360;9.736;2023-04-01T12:29:10;1.60;;;1.03;;
30647;SDS011;17683;53.360;9.736;2023-04-01T12:38:18;1.63;;;1.10;;
30647;SDS011;17683;53.360;9.736;2023-04-01T12:43:20;3.03;;;1.13;;
30647;SDS011;17683;53.360;9.736;2023-04-01T12:59:44;3.67;;;2.00;;
30647;SDS011;17683;53.360;9.736;2023-04-01T13:05:32;5.53;;;2.55;;
30647;SDS011;17683;53.360;9.736;2023-04-01T13:08:49;3.42;;;2.17;;
30647;SDS011;17683;53.360;9.736;2023-04-01T13:16:29;3.03;;;2.35;;
30647;SDS011;17683;53.360;9.736;2023-04-01T13:27:51;6.78;;;2.88;;
30647;SDS011;17683;53.360;9.736;2023-04-01T13:30:27;3.58;;;2.67;;
30647;SDS011;17683;53.360;9.736;2023-04-01T13:38:03;4.53;;;2.78;;
30647;SDS011;17683;53.360;9.736;2023-04-01T13:40:43;4.75;;;2.25;;
30647;SDS011;17683;53.360;9.736;2023-04-01T13:43:15;4.25;;;3.00;;
30647;SDS011;17683;53.360;9.736;2023-04-01T13:51:18;3.88;;;2.40;;
30647;SDS011;17683;53.360;9.736;2023-04-01T13:53:57;5.78;;;3.05;;
30647;SDS011;17683;53.360;9.736;2023-04-01T14:15:52;3.30;;;2.30;;
30647;SDS011;17683;53.360;9.736;2023-04-01T14:18:32;2.70;;;2.00;;
30647;SDS011;17683;53.360;9.736;2023-04-01T14:21:20;4.75;;;2.03;;
30647;SDS011;17683;53.360;9.736;2023-04-01T14:24:20;5.03;;;1.92;;
30647;SDS011;17683;53.360;9.736;2023-04-01T14:27:25;2.53;;;1.83;;
30647;SDS011;17683;53.360;9.736;2023-04-01T14:35:33;2.67;;;1.60;;
30647;SDS011;17683;53.360;9.736;2023-04-01T14:49:17;2.70;;;2.10;;
30647;SDS011;17683;53.360;9.736;2023-04-01T14:54:37;3.95;;;2.13;;
30647;SDS011;17683;53.360;9.736;2023-04-01T14:57:16;3.28;;;1.88;;
30647;SDS011;17683;53.360;9.736;2023-04-01T15:02:47;2.70;;;1.73;;
30647;SDS011;17683;53.360;9.736;2023-04-01T15:05:32;3.00;;;2.35;;
30647;SDS011;17683;53.360;9.736;2023-04-01T15:32:05;4.63;;;2.92;;
30647;SDS011;17683;53.360;9.736;2023-04-01T15:45:31;4.30;;;3.05;;
30647;SDS011;17683;53.360;9.736;2023-04-01T15:50:51;4.75;;;2.95;;
30647;SDS011;17683;53.360;9.736;2023-04-01T16:18:05;3.08;;;2.60;;
30647;SDS011;17683;53.360;9.736;2023-04-01T16:20:57;7.53;;;3.08;;
30647;SDS011;17683;53.360;9.736;2023-04-01T16:34:21;8.75;;;3.55;;
30647;SDS011;17683;53.360;9.736;2023-04-01T16:37:00;6.55;;;3.03;;
30647;SDS011;17683;53.360;9.736;2023-04-01T16:39:47;9.85;;;3.22;;
30647;SDS011;17683;53.360;9.736;2023-04-01T16:48:01;8.98;;;5.53;;
30647;SDS011;17683;53.360;9.736;2023-04-01T16:53:19;10.30;;;3.88;;
30647;SDS011;17683;53.360;9.736;2023-04-01T16:56:27;8.20;;;3.55;;
30647;SDS011;17683;53.360;9.736;2023-04-01T17:01:43;6.85;;;3.80;;
30647;SDS011;17683;53.360;9.736;2023-04-01T17:18:09;9.95;;;3.95;;
30647;SDS011;17683;53.360;9.736;2023-04-01T17:21:03;8.68;;;3.70;;
30647;SDS011;17683;53.360;9.736;2023-04-01T17:23:51;5.63;;;3.40;;
30647;SDS011;17683;53.360;9.736;2023-04-01T17:32:17;9.93;;;4.70;;
30647;SDS011;17683;53.360;9.736;2023-04-01T17:34:54;8.50;;;4.15;;
30647;SDS011;17683;53.360;9.736;2023-04-01T17:42:46;7.30;;;3.63;;
30647;SDS011;17683;53.360;9.736;2023-04-01T17:48:13;9.98;;;3.38;;
30647;SDS011;17683;53.360;9.736;2023-04-01T17:58:45;9.27;;;3.55;;
30647;SDS011;17683;53.360;9.736;2023-04-01T18:01:17;7.57;;;3.63;;
30647;SDS011;17683;53.360;9.736;2023-04-01T18:07:10;9.10;;;3.92;;
30647;SDS011;17683;53.360;9.736;2023-04-01T18:17:57;8.10;;;4.05;;
30647;SDS011;17683;53.360;9.736;2023-04-01T18:20:31;8.10;;;4.30;;
30647;SDS011;17683;53.360;9.736;2023-04-01T18:25:49;7.65;;;4.10;;
30647;SDS011;17683;53.360;9.736;2023-04-01T18:30:57;10.30;;;3.53;;
30647;SDS011;17683;53.360;9.736;2023-04-01T18:36:33;5.65;;;3.30;;
30647;SDS011;17683;53.360;9.736;2023-04-01T18:50:26;6.22;;;3.63;;
30647;SDS011;17683;53.360;9.736;2023-04-01T18:53:18;6.53;;;3.10;;
30647;SDS011;17683;53.360;9.736;2023-04-01T18:58:53;8.27;;;3.80;;
30647;SDS011;17683;53.360;9.736;2023-04-01T19:01:26;7.63;;;3.03;;
30647;SDS011;17683;53.360;9.736;2023-04-01T19:09:25;7.72;;;3.70;;
30647;SDS011;17683;53.360;9.736;2023-04-01T19:12:17;6.10;;;3.20;;
30647;SDS011;17683;53.360;9.736;2023-04-01T19:23:38;8.65;;;3.72;;
30647;SDS011;17683;53.360;9.736;2023-04-01T19:25:54;11.93;;;3.35;;
30647;SDS011;17683;53.360;9.736;2023-04-01T19:33:47;10.88;;;3.70;;
30647;SDS011;17683;53.360;9.736;2023-04-01T19:36:46;6.40;;;4.13;;
30647;SDS011;17683;53.360;9.736;2023-04-01T19:42:00;9.70;;;4.45;;
30647;SDS011;17683;53.360;9.736;2023-04-01T19:47:57;6.55;;;3.67;;
30647;SDS011;17683;53.360;9.736;2023-04-01T19:50:48;8.95;;;3.70;;
30647;SDS011;17683;53.360;9.736;2023-04-01T19:53:22;5.97;;;3.20;;
30647;SDS011;17683;53.360;9.736;2023-04-01T19:55:57;8.20;;;4.07;;
30647;SDS011;17683;53.360;9.736;2023-04-01T20:01:11;6.05;;;3.45;;
30647;SDS011;17683;53.360;9.736;2023-04-01T20:03:46;5.90;;;3.45;;
30647;SDS011;17683;53.360;9.736;2023-04-01T20:14:51;6.30;;;3.13;;
30647;SDS011;17683;53.360;9.736;2023-04-01T20:17:24;8.55;;;3.35;;
30647;SDS011;17683;53.360;9.736;2023-04-01T20:28:00;6.88;;;3.08;;
30647;SDS011;17683;53.360;9.736;2023-04-01T20:36:05;4.75;;;2.65;;
30647;SDS011;17683;53.360;9.736;2023-04-01T20:41:33;5.72;;;2.63;;
30647;SDS011;17683;53.360;9.736;2023-04-01T20:49:39;4.88;;;2.92;;
30647;SDS011;17683;53.360;9.736;2023-04-01T20:54:47;5.93;;;2.90;;
30647;SDS011;17683;53.360;9.736;2023-04-01T20:58:08;10.18;;;3.25;;
30647;SDS011;17683;53.360;9.736;2023-04-01T21:08:46;4.22;;;2.13;;
30647;SDS011;17683;53.360;9.736;2023-04-01T21:11:20;6.82;;;2.67;;
30647;SDS011;17683;53.360;9.736;2023-04-01T21:16:44;13.18;;;4.40;;
30647;SDS011;17683;53.360;9.736;2023-04-01T21:19:39;7.53;;;2.90;;
30647;SDS011;17683;53.360;9.736;2023-04-01T21:22:40;6.05;;;2.90;;
30647;SDS011;17683;53.360;9.736;2023-04-01T21:36:30;8.52;;;2.88;;
30647;SDS011;17683;53.360;9.736;2023-04-01T21:52:56;5.75;;;1.90;;
30647;SDS011;17683;53.360;9.736;2023-04-01T22:04:32;8.05;;;2.10;;
30647;SDS011;17683;53.360;9.736;2023-04-01T22:10:26;5.35;;;2.10;;
30647;SDS011;17683;53.360;9.736;2023-04-01T22:18:13;3.63;;;1.58;;
30647;SDS011;17683;53.360;9.736;2023-04-01T22:20:44;3.65;;;1.98;;
30647;SDS011;17683;53.360;9.736;2023-04-01T22:23:25;4.88;;;1.98;;
30647;SDS011;17683;53.360;9.736;2023-04-01T22:26:02;4.95;;;2.05;;
30647;SDS011;17683;53.360;9.736;2023-04-01T22:31:32;5.32;;;2.03;;
30647;SDS011;17683;53.360;9.736;2023-04-01T22:34:25;6.93;;;1.60;;
30647;SDS011;17683;53.360;9.736;2023-04-01T22:42:53;4.75;;;1.50;;
30647;SDS011;17683;53.360;9.736;2023-04-01T22:53:07;3.60;;;1.58;;
30647;SDS011;17683;53.360;9.736;2023-04-01T22:55:47;7.57;;;1.88;;
30647;SDS011;17683;53.360;9.736;2023-04-01T22:58:17;3.38;;;1.83;;
30647;SDS011;17683;53.360;9.736;2023-04-01T23:00:51;3.53;;;1.65;;
30647;SDS011;17683;53.360;9.736;2023-04-01T23:03:27;4.65;;;1.63;;
30647;SDS011;17683;53.360;9.736;2023-04-01T23:05:56;7.13;;;1.83;;
30647;SDS011;17683;53.360;9.736;2023-04-01T23:11:28;4.63;;;2.03;;
30647;SDS011;17683;53.360;9.736;2023-04-01T23:19:54;4.00;;;1.52;;
30647;SDS011;17683;53.360;9.736;2023-04-01T23:25:30;7.45;;;2.20;;
30647;SDS011;17683;53.360;9.736;2023-04-01T23:35:46;4.55;;;2.00;;
30647;SDS011;17683;53.360;9.736;2023-04-01T23:38:19;6.15;;;1.85;;
30647;SDS011;17683;53.360;9.736;2023-04-01T23:40:51;8.80;;;2.03;;
30647;SDS011;17683;53.360;9.736;2023-04-01T23:43:22;8.30;;;1.98;;
30647;SDS011;17683;53.360;9.736;2023-04-01T23:45:56;4.53;;;1.70;;
30647;SDS011;17683;53.360;9.736;2023-04-01T23:48:28;7.78;;;1.50;;
30647;SDS011;17683;53.360;9.736;2023-04-01T23:51:14;6.97;;;1.58;;
30647;SDS011;17683;53.360;9.736;2023-04-01T23:57:15;3.30;;;1.38;;
30647;SDS011;17683;53.360;9.736;2023-04-01T23:59:58;5.57;;;1.55;;
